Aeroporto :
LOGIN :

Iscrizione | Disclaimer

   EN    FR    IT 

 










Sommario :    VFR   VFR Marginale   IFR   IFR Intensivo   IFR Molto Intensivo
Visibilità : 
Base nubi : 
>= 8 km
>= 3000ft
5 / 8 km
1000 / 3000 ft
1500m / 5 km
500 / 1000 ft
800 / 1500m
200 / 500 ft
< 800m
< 200 ft
Simboli :   Temporali  Nebbia  Neve Forte  Precipitazioni Forti  Vento > 20 kt
SIGMETs :   Varie  Temporali  Ghiacco  Turbolenza  Onda orograficha  Ceneri Vulcaniche






- Altitudine del aeroporto : 75 ft
- Codice IATA : MRH


EGYM - RAF Marham

ULTIMO METAR :
  • 131150Z 21006KT 9999 SCT010 06/04 Q0999 TEMPO FEW010 RMK GRN TEMPO BLU

METARs OBSOLETI :
  • 131120Z 22006KT 9999 FEW008 07/04 Q0999 NOSIG RMK BLU BLU
  • 131050Z 21006KT 9999 FEW008 06/04 Q0999 BLU TEMPO SCT007 RMK BLU WHT
  • 131020Z 19005KT 8000 HZ FEW007 SCT200 05/04 Q1000 TEMPO SCT007 RMK BLU TEMPO GRN
  • 130950Z 21006KT 7000 HZ FEW007 SCT200 05/04 Q1000 TEMPO 9999 NSW SCT007 RMK WHT TEMPO GRN
  • 130920Z 21004KT 7000 BR FEW007 SCT200 04/04 Q1000 TEMPO 5000 BR SCT008 RMK WHT TEMPO GRN

TAF TAF EGYM
Valido dal 13 a 12 ore il 13 a 19 ore UTC


131051Z 1312/1319 22008KT 9999 SCT025
TEMPO 1312/1319 SCT015
PROB30
TEMPO 1312/1313 SCT010
BECMG 1315/1318 13005KT



MetMap, La meteo Aeronautica in un colpo d'occhio ! - Copyright ORBIFLY Dicembre 2007 - Disclaimer

ORBIFLY MET'MAP TEAM :

Programmazione e sviluppo : Alexandra Zaïnal
Concezione e sviluppo : Baudouin d'Aumeries
Co-Programmazione e sviluppo : Marc-Olivier Méhu
Supporto tecnico e logistico : Manuel Goepfert
Aiuto per la traduzione : Arnaldo La Scala

Contatto : metmap@orbifly.com




FONTI E CREDITI :

   NOAA